OMAD/AZI METAR and TAF weather

Enter ICAO airport designator
Station Type Date Time Source
OMAD METAR 2019/04/23 05:00 UTC NOAA

OMAD 230500Z 31012KT CAVOK 27/17 Q1012 NOSIG


Station Type Date Time Source
OMAD Decoded METAR 2019/04/23 05:00 UTC NOAA

Abu Dhabi Bateen Airport, United Arab Emirates (OMAD) 24-26N 054-28E 3M
Apr 23, 2019 - 01:00 AM EDT / 2019.04.23 0500 UTC
Wind: from the NW (310 degrees) at 14 MPH (12 KT):0
Visibility: greater than 7 mile(s):0
Temperature: 80 F (27 C)
Dew Point: 62 F (17 C)
Relative Humidity: 54%
Pressure (altimeter): 29.88 in. Hg (1012 hPa)
ob: OMAD 230500Z 31012KT CAVOK 27/17 Q1012 NOSIG
cycle: 5

Station Type Date Time Source
OMAD TAF 2019/04/23 06:03 UTC NOAA

TAF TAF OMAD 230500Z 2306/2412 31014KT 8000 FEW040 PROB30
TEMPO 2308/2314 31020KT 4000 BLDU PROB40
TEMPO 2406/2412 31020KT 4000 BLDU

Example: see airport list